Kouros — A8QD7 — position and weather

sailwx.info

Track history (hours):
 
Tides and Currents Weather Stations Pressure Air Temp Water Temp Dewpoint Dewpoint Depression Visibility Wind Speed Wind Dir Waves Ship Positions

Kouros

Last reported at 2018-Jan-11 21:19 UTC. Time now 2018-Jan-18 21:40 UTC.
Position N 28°40' W 014°47'.

Length 183 m; draft 8.2 m.

Type: Tanker. MMSI: 636013897.

Date/timePositionNaut miles runAvg speedWind from/ knotsBaromVisibWave heightAir tempDewpointWater temp
2018-Jan-11 21:19N 28°40' W 014°47'411.4
2018-Jan-11 21:00N 28°37' W 014°50'611.4
2018-Jan-11 20:30N 28°33' W 014°54'611.3
2018-Jan-11 19:59N 28°29' W 014°59'611.5
2018-Jan-11 19:29N 28°25' W 015°04'510.7
2018-Jan-11 19:00N 28°22' W 015°08'5 9.7
2018-Jan-11 18:30N 28°18' W 015°12'511.0
2018-Jan-11 18:00N 28°15' W 015°17'611.1
2018-Jan-11 17:30N 28°11' W 015°21'3 4.1
2018-Jan-11 16:43N 28°08' W 015°24'0 0.0
2018-Jan-11 16:28N 28°08' W 015°24'0 0.1
2018-Jan-11 15:58N 28°08' W 015°24'0 0.0
2018-Jan-11 15:28N 28°08' W 015°24'0 0.0
2018-Jan-11 14:55N 28°08' W 015°24'0 0.0
2018-Jan-11 14:28N 28°08' W 015°24'0 0.0
2018-Jan-11 13:46N 28°08' W 015°24'0 0.1
2018-Jan-11 13:19N 28°08' W 015°24'0 0.1
2018-Jan-11 12:49N 28°08' W 015°24'0 0.0
2018-Jan-11 12:28N 28°08' W 015°24'0 0.0
2018-Jan-11 11:58N 28°08' W 015°24'0 0.0
2018-Jan-11 11:19N 28°08' W 015°24'0 0.0
2018-Jan-11 10:49N 28°08' W 015°24'0 0.0
2018-Jan-11 10:22N 28°08' W 015°24'0 0.0
2018-Jan-11 09:52N 28°08' W 015°24'0 0.1
2018-Jan-11 09:19N 28°08' W 015°24'0 0.0
2018-Jan-11 08:52N 28°08' W 015°24'0 0.1
2018-Jan-11 08:30N 28°08' W 015°24'1 1.2
2018-Jan-11 08:00N 28°08' W 015°23'3 6.3
2018-Jan-11 07:30N 28°05' W 015°22'4 7.4
2018-Jan-11 07:00N 28°02' W 015°19'4 7.6
2018-Jan-11 06:30N 27°59' W 015°17'4 8.2
2018-Jan-11 06:00N 27°55' W 015°17'4 8.2
2018-Jan-11 05:30N 27°51' W 015°17'4 8.3
2018-Jan-11 04:59N 27°46' W 015°17'4 7.9
2018-Jan-11 04:30N 27°43' W 015°17'  
2018-Jan-06 00:25N 08°27' W 015°35'511.4
2018-Jan-06 00:00N 08°23' W 015°32'611.6
2018-Jan-05 23:30N 08°19' W 015°29'611.7
2018-Jan-05 23:00N 08°14' W 015°25'611.2
2018-Jan-05 22:30N 08°10' W 015°22'611.3
2018-Jan-05 22:00N 08°05' W 015°18'611.6
2018-Jan-05 21:30N 08°01' W 015°14'611.7
2018-Jan-05 21:00N 07°56' W 015°11'611.7
2018-Jan-05 20:30N 07°51' W 015°07'1311.7
2018-Jan-05 19:23N 07°41' W 014°59'411.7
2018-Jan-05 19:00N 07°37' W 014°57'611.6
2018-Jan-05 18:30N 07°33' W 014°53'611.6
2018-Jan-05 18:00N 07°28' W 014°50'6411.6
2018-Jan-05 12:30N 06°37' W 014°11'  
Track history (hours):
 
Tides and Currents Weather Stations Pressure Air Temp Water Temp Dewpoint Dewpoint Depression Visibility Wind Speed Wind Dir Waves Ship Positions

Kouros

Last reported at 2018-Jan-11 21:19 UTC. Time now 2018-Jan-18 21:40 UTC.
Position N 28°40' W 014°47'.

Length 183 m; draft 8.2 m.

Type: Tanker. MMSI: 636013897.

Date/timePositionNaut miles runAvg speedWind from/ knotsBaromVisibWave heightAir tempDewpointWater temp
2018-Jan-11 21:19N 28°40' W 014°47'411.4
2018-Jan-11 21:00N 28°37' W 014°50'611.4
2018-Jan-11 20:30N 28°33' W 014°54'611.3
2018-Jan-11 19:59N 28°29' W 014°59'611.5
2018-Jan-11 19:29N 28°25' W 015°04'510.7
2018-Jan-11 19:00N 28°22' W 015°08'5 9.7
2018-Jan-11 18:30N 28°18' W 015°12'511.0
2018-Jan-11 18:00N 28°15' W 015°17'611.1
2018-Jan-11 17:30N 28°11' W 015°21'3 4.1
2018-Jan-11 16:43N 28°08' W 015°24'0 0.0
2018-Jan-11 16:28N 28°08' W 015°24'0 0.1
2018-Jan-11 15:58N 28°08' W 015°24'0 0.0
2018-Jan-11 15:28N 28°08' W 015°24'0 0.0
2018-Jan-11 14:55N 28°08' W 015°24'0 0.0
2018-Jan-11 14:28N 28°08' W 015°24'0 0.0
2018-Jan-11 13:46N 28°08' W 015°24'0 0.1
2018-Jan-11 13:19N 28°08' W 015°24'0 0.1
2018-Jan-11 12:49N 28°08' W 015°24'0 0.0
2018-Jan-11 12:28N 28°08' W 015°24'0 0.0
2018-Jan-11 11:58N 28°08' W 015°24'0 0.0
2018-Jan-11 11:19N 28°08' W 015°24'0 0.0
2018-Jan-11 10:49N 28°08' W 015°24'0 0.0
2018-Jan-11 10:22N 28°08' W 015°24'0 0.0
2018-Jan-11 09:52N 28°08' W 015°24'0 0.1
2018-Jan-11 09:19N 28°08' W 015°24'0 0.0
2018-Jan-11 08:52N 28°08' W 015°24'0 0.1
2018-Jan-11 08:30N 28°08' W 015°24'1 1.2
2018-Jan-11 08:00N 28°08' W 015°23'3 6.3
2018-Jan-11 07:30N 28°05' W 015°22'4 7.4
2018-Jan-11 07:00N 28°02' W 015°19'4 7.6
2018-Jan-11 06:30N 27°59' W 015°17'4 8.2
2018-Jan-11 06:00N 27°55' W 015°17'4 8.2
2018-Jan-11 05:30N 27°51' W 015°17'4 8.3
2018-Jan-11 04:59N 27°46' W 015°17'4 7.9
2018-Jan-11 04:30N 27°43' W 015°17'  
2018-Jan-06 00:25N 08°27' W 015°35'511.4
2018-Jan-06 00:00N 08°23' W 015°32'611.6
2018-Jan-05 23:30N 08°19' W 015°29'611.7
2018-Jan-05 23:00N 08°14' W 015°25'611.2
2018-Jan-05 22:30N 08°10' W 015°22'611.3
2018-Jan-05 22:00N 08°05' W 015°18'611.6
2018-Jan-05 21:30N 08°01' W 015°14'611.7
2018-Jan-05 21:00N 07°56' W 015°11'611.7
2018-Jan-05 20:30N 07°51' W 015°07'1311.7
2018-Jan-05 19:23N 07°41' W 014°59'411.7
2018-Jan-05 19:00N 07°37' W 014°57'611.6
2018-Jan-05 18:30N 07°33' W 014°53'611.6
2018-Jan-05 18:00N 07°28' W 014°50'6411.6
2018-Jan-05 12:30N 06°37' W 014°11'  

Dump ship's entire track history